Time,TemperatureF,DewpointF,PressureIn,WindDirection,WindDirectionDegrees,WindSpeedMPH,WindSpeedGustMPH,Humidity,HourlyPrecipIn,Conditions,Clouds,dailyrainin,SoftwareType,DateUTC
2013-12-31 00:00:00,-8.9,-12.4,30.34,West,281,1.0,3.1,84,0.00,,SCT100,0.00,VWS V14.01,2013-12-31 06:00:00,
2013-12-31 00:10:00,-9.3,-12.8,30.34,West,281,0.0,1.0,84,0.00,,SCT100,0.00,VWS V14.01,2013-12-31 06:10:00,
2013-12-31 00:20:00,-9.6,-13.1,30.34,West,281,1.0,2.1,84,0.00,,SCT100,0.00,VWS V14.01,2013-12-31 06:20:00,
2013-12-31 00:25:00,-9.9,-13.6,30.34,West,281,0.0,2.1,83,0.00,,BKN100,0.00,VWS V14.01,2013-12-31 06:25:00,
2013-12-31 00:35:00,-10.4,-14.1,30.33,West,281,0.0,1.0,83,0.00,,BKN100,0.00,VWS V14.01,2013-12-31 06:35:00,
2013-12-31 00:40:00,-10.6,-14.3,30.33,West,281,0.0,0.0,83,0.00,,BKN100,0.00,VWS V14.01,2013-12-31 06:40:00,
2013-12-31 00:50:00,-10.7,-14.2,30.33,West,281,0.0,0.0,84,0.00,,OVC100,0.00,VWS V14.01,2013-12-31 06:50:00,
2013-12-31 00:55:00,-10.6,-14.1,30.32,WNW,282,1.0,2.1,84,0.00,,OVC100,0.00,VWS V14.01,2013-12-31 06:55:00,
2013-12-31 01:00:00,-10.3,-13.8,30.32,WNW,283,1.0,3.1,84,0.00,,OVC100,0.00,VWS V14.01,2013-12-31 07:00:00,
2013-12-31 01:05:00,-9.8,-13.1,30.32,WNW,295,3.0,4.2,85,0.00,,OVC100,0.00,VWS V14.01,2013-12-31 07:05:00,
2013-12-31 01:15:00,-9.2,-12.5,30.32,NW,311,3.0,4.2,85,0.00,,OVC100,0.00,VWS V14.01,2013-12-31 07:15:00,
2013-12-31 01:20:00,-9.0,-12.3,30.33,NW,312,1.0,5.2,85,0.00,,OVC100,0.00,VWS V14.01,2013-12-31 07:20:00,
2013-12-31 01:25:00,-9.0,-12.5,30.33,NW,304,2.0,7.3,84,0.00,,OVC100,0.00,VWS V14.01,2013-12-31 07:25:00,
2013-12-31 01:35:00,-8.9,-12.4,30.34,NW,310,3.0,7.3,84,0.00,,OVC100,0.00,VWS V14.01,2013-12-31 07:35:00,
2013-12-31 01:40:00,-8.9,-12.4,30.33,NW,309,1.0,4.2,84,0.00,,SCT110,0.00,VWS V14.01,2013-12-31 07:40:00,
2013-12-31 01:50:00,-8.5,-11.8,30.33,NW,311,0.0,4.2,85,0.00,,SCT110,0.00,VWS V14.01,2013-12-31 07:50:00,
2013-12-31 02:00:00,-8.0,-11.3,30.33,NW,312,2.0,3.1,85,0.00,,SCT110,0.00,VWS V14.01,2013-12-31 08:00:00,
2013-12-31 02:05:00,-7.9,-11.2,30.34,NW,311,1.0,5.2,85,0.00,,BKN090,0.00,VWS V14.01,2013-12-31 08:05:00,
2013-12-31 02:10:00,-7.5,-10.8,30.34,NW,309,2.0,4.2,85,0.00,,BKN090,0.00,VWS V14.01,2013-12-31 08:10:00,
2013-12-31 02:15:00,-7.5,-10.8,30.35,NW,308,1.0,7.3,85,0.00,,BKN090,0.00,VWS V14.01,2013-12-31 08:15:00,
2013-12-31 02:20:00,-7.5,-10.8,30.34,NW,309,1.0,5.2,85,0.00,,SCT090,0.00,VWS V14.01,2013-12-31 08:20:00,
2013-12-31 02:25:00,-7.5,-10.8,30.34,NW,313,6.0,6.3,85,0.00,,SCT090,0.00,VWS V14.01,2013-12-31 08:25:00,
2013-12-31 02:30:00,-7.5,-11.0,30.34,NW,310,2.0,8.4,84,0.00,,SCT090,0.00,VWS V14.01,2013-12-31 08:30:00,
2013-12-31 02:35:00,-7.6,-11.1,30.34,NW,310,1.0,4.2,84,0.00,,SCT090,0.00,VWS V14.01,2013-12-31 08:35:00,
2013-12-31 02:40:00,-7.6,-11.1,30.35,NW,311,3.0,5.2,84,0.00,,SCT090,0.00,VWS V14.01,2013-12-31 08:40:00,
2013-12-31 02:45:00,-7.6,-11.1,30.35,NW,311,0.0,4.2,84,0.00,,BKN100,0.00,VWS V14.01,2013-12-31 08:45:00,
2013-12-31 02:50:00,-7.8,-11.3,30.35,NW,311,0.0,4.2,84,0.00,,BKN100,0.00,VWS V14.01,2013-12-31 08:50:00,
2013-12-31 03:00:00,-8.0,-11.5,30.34,NW,311,1.0,3.1,84,0.00,,BKN100,0.00,VWS V14.01,2013-12-31 09:00:00,
2013-12-31 03:05:00,-8.1,-11.6,30.34,NW,313,2.0,3.1,84,0.00,,BKN120,0.00,VWS V14.01,2013-12-31 09:05:00,
2013-12-31 03:15:00,-8.0,-11.5,30.34,NW,311,1.0,4.2,84,0.00,,BKN120,0.00,VWS V14.01,2013-12-31 09:15:00,
2013-12-31 03:25:00,-7.9,-11.4,30.34,NW,312,2.0,4.2,84,0.00,,OVC120,0.00,VWS V14.01,2013-12-31 09:25:00,
2013-12-31 03:30:00,-7.8,-11.3,30.33,NW,310,2.0,3.1,84,0.00,,OVC120,0.00,VWS V14.01,2013-12-31 09:30:00,
2013-12-31 03:35:00,-7.7,-11.2,30.34,NW,310,0.0,2.1,84,0.00,,OVC120,0.00,VWS V14.01,2013-12-31 09:35:00,
2013-12-31 03:40:00,-7.6,-11.1,30.34,NW,309,0.0,3.1,84,0.00,,OVC120,0.00,VWS V14.01,2013-12-31 09:40:00,
2013-12-31 03:45:00,-7.5,-11.0,30.34,NW,311,0.0,3.1,84,0.00,,OVC120,0.00,VWS V14.01,2013-12-31 09:45:00,
2013-12-31 03:50:00,-7.5,-11.0,30.33,NW,312,0.0,0.0,84,0.00,,OVC120,0.00,VWS V14.01,2013-12-31 09:50:00,
2013-12-31 03:55:00,-7.3,-10.6,30.33,NW,312,0.0,0.0,85,0.00,,OVC120,0.00,VWS V14.01,2013-12-31 09:55:00,
2013-12-31 04:00:00,-7.3,-10.6,30.33,NW,312,0.0,0.0,85,0.00,,OVC120,0.00,VWS V14.01,2013-12-31 10:00:00,
2013-12-31 04:05:00,-7.2,-10.5,30.34,NW,312,0.0,0.0,85,0.00,,OVC075,0.00,VWS V14.01,2013-12-31 10:05:00,
2013-12-31 04:10:00,-7.1,-10.4,30.34,NW,312,0.0,0.0,85,0.00,,OVC075,0.00,VWS V14.01,2013-12-31 10:10:00,
2013-12-31 04:15:00,-7.0,-10.6,30.34,NW,312,0.0,0.0,84,0.00,,OVC075,0.00,VWS V14.01,2013-12-31 10:15:00,
2013-12-31 04:25:00,-6.9,-10.4,30.33,NW,312,0.0,0.0,84,0.00,,OVC090,0.00,VWS V14.01,2013-12-31 10:25:00,
2013-12-31 04:30:00,-6.7,-10.0,30.33,NW,312,0.0,0.0,85,0.00,,OVC090,0.00,VWS V14.01,2013-12-31 10:30:00,
2013-12-31 04:35:00,-6.6,-9.9,30.33,NW,311,0.0,0.0,85,0.00,,OVC090,0.00,VWS V14.01,2013-12-31 10:35:00,
2013-12-31 04:40:00,-6.5,-9.8,30.34,NW,311,0.0,2.1,85,0.00,,OVC090,0.00,VWS V14.01,2013-12-31 10:40:00,
2013-12-31 04:50:00,-6.3,-9.6,30.34,NW,310,1.0,2.1,85,0.00,,OVC090,0.00,VWS V14.01,2013-12-31 10:50:00,
2013-12-31 04:55:00,-6.2,-9.5,30.33,NW,310,0.0,3.1,85,0.00,,OVC090,0.00,VWS V14.01,2013-12-31 10:55:00,
2013-12-31 05:00:00,-6.1,-9.4,30.33,NW,310,0.0,1.0,85,0.00,,OVC090,0.00,VWS V14.01,2013-12-31 11:00:00,
2013-12-31 05:10:00,-6.0,-9.3,30.33,NW,310,0.0,0.0,85,0.00,,OVC070,0.00,VWS V14.01,2013-12-31 11:10:00,
2013-12-31 05:15:00,-5.9,-9.2,30.33,NW,311,0.0,0.0,85,0.00,,OVC070,0.00,VWS V14.01,2013-12-31 11:15:00,
2013-12-31 05:25:00,-5.7,-9.0,30.34,NW,311,0.0,0.0,85,0.00,,OVC080,0.00,VWS V14.01,2013-12-31 11:25:00,
2013-12-31 05:30:00,-5.6,-8.9,30.34,WNW,303,3.0,3.1,85,0.00,,OVC080,0.00,VWS V14.01,2013-12-31 11:30:00,
2013-12-31 05:35:00,-5.4,-8.7,30.35,WNW,297,0.0,3.1,85,0.00,,OVC080,0.00,VWS V14.01,2013-12-31 11:35:00,
2013-12-31 05:40:00,-5.3,-8.6,30.34,WNW,297,0.0,0.0,85,0.00,,OVC080,0.00,VWS V14.01,2013-12-31 11:40:00,
2013-12-31 05:50:00,-5.2,-8.5,30.34,WNW,302,3.0,4.2,85,0.00,,OVC070,0.00,VWS V14.01,2013-12-31 11:50:00,
2013-12-31 05:55:00,-5.1,-8.4,30.34,WNW,302,0.0,4.2,85,0.00,,OVC070,0.00,VWS V14.01,2013-12-31 11:55:00,
2013-12-31 06:00:00,-5.0,-8.3,30.34,WNW,302,0.0,2.1,85,0.00,,OVC070,0.00,VWS V14.01,2013-12-31 12:00:00,
2013-12-31 06:10:00,-4.8,-8.1,30.35,WNW,302,0.0,2.1,85,0.00,,OVC070,0.00,VWS V14.01,2013-12-31 12:10:00,
2013-12-31 06:15:00,-4.6,-7.9,30.35,West,273,0.0,4.2,85,0.00,,OVC070,0.00,VWS V14.01,2013-12-31 12:15:00,
2013-12-31 06:25:00,-4.4,-7.8,30.36,West,275,0.0,7.3,85,0.00,,OVC070,0.00,VWS V14.01,2013-12-31 12:25:00,
2013-12-31 06:30:00,-4.2,-7.6,30.36,West,274,1.0,3.1,85,0.00,,OVC070,0.00,VWS V14.01,2013-12-31 12:30:00,
2013-12-31 06:35:00,-4.1,-7.5,30.36,West,277,1.0,6.3,85,0.00,,OVC070,0.00,VWS V14.01,2013-12-31 12:35:00,
2013-12-31 06:40:00,-4.0,-7.4,30.36,WSW,249,2.0,6.3,85,0.00,,OVC070,0.00,VWS V14.01,2013-12-31 12:40:00,
2013-12-31 06:45:00,-4.0,-7.4,30.36,SW,234,5.0,8.4,85,0.00,,OVC070,0.00,VWS V14.01,2013-12-31 12:45:00,
2013-12-31 06:50:00,-3.9,-7.3,30.36,West,262,6.0,8.4,85,0.00,,OVC070,0.00,VWS V14.01,2013-12-31 12:50:00,
2013-12-31 06:55:00,-3.8,-7.2,30.36,West,279,4.0,10.5,85,0.00,,OVC070,0.00,VWS V14.01,2013-12-31 12:55:00,
2013-12-31 07:00:00,-3.7,-7.1,30.36,West,265,3.0,7.3,85,0.00,,OVC070,0.00,VWS V14.01,2013-12-31 13:00:00,
2013-12-31 07:05:00,-3.6,-7.0,30.37,WNW,283,0.0,4.2,85,0.00,,,0.00,VWS V14.01,2013-12-31 13:05:00,
2013-12-31 07:10:00,-3.4,-6.8,30.36,West,276,2.0,4.2,85,0.00,,,0.00,VWS V14.01,2013-12-31 13:10:00,
2013-12-31 07:15:00,-3.3,-6.7,30.37,WSW,250,0.0,6.3,85,0.00,,,0.00,VWS V14.01,2013-12-31 13:15:00,
2013-12-31 07:25:00,-3.1,-6.5,30.36,West,263,2.0,6.3,85,0.00,,,0.00,VWS V14.01,2013-12-31 13:25:00,
2013-12-31 07:30:00,-3.0,-6.4,30.36,West,269,0.0,3.1,85,0.00,,,0.00,VWS V14.01,2013-12-31 13:30:00,
2013-12-31 07:35:00,-3.0,-6.4,30.36,West,269,0.0,2.1,85,0.00,,,0.00,VWS V14.01,2013-12-31 13:35:00,
2013-12-31 07:40:00,-2.9,-6.3,30.36,West,267,1.0,2.1,85,0.00,,,0.00,VWS V14.01,2013-12-31 13:40:00,
2013-12-31 07:50:00,-2.8,-6.2,30.36,West,267,0.0,0.0,85,0.00,,,0.00,VWS V14.01,2013-12-31 13:50:00,
2013-12-31 07:55:00,-2.7,-6.1,30.36,West,267,0.0,0.0,85,0.00,,,0.00,VWS V14.01,2013-12-31 13:55:00,
2013-12-31 08:00:00,-2.7,-6.1,30.36,West,267,0.0,0.0,85,0.00,,,0.00,VWS V14.01,2013-12-31 14:00:00,
2013-12-31 08:10:00,-2.6,-6.0,30.36,West,267,0.0,0.0,85,0.00,,,0.00,VWS V14.01,2013-12-31 14:10:00,
2013-12-31 08:15:00,-2.5,-5.9,30.36,West,267,0.0,0.0,85,0.00,,,0.00,VWS V14.01,2013-12-31 14:15:00,
2013-12-31 08:25:00,-2.4,-5.8,30.37,West,267,0.0,0.0,85,0.00,,,0.00,VWS V14.01,2013-12-31 14:25:00,
2013-12-31 08:30:00,-2.3,-5.7,30.37,West,267,0.0,0.0,85,0.00,,,0.00,VWS V14.01,2013-12-31 14:30:00,
2013-12-31 08:35:00,-2.2,-5.6,30.37,West,267,0.0,0.0,85,0.00,,,0.00,VWS V14.01,2013-12-31 14:35:00,
2013-12-31 08:40:00,-2.2,-5.3,30.37,West,268,0.0,0.0,86,0.00,,,0.00,VWS V14.01,2013-12-31 14:40:00,
2013-12-31 08:45:00,-2.1,-5.2,30.37,West,268,0.0,0.0,86,0.00,,,0.00,VWS V14.01,2013-12-31 14:45:00,
2013-12-31 08:50:00,-2.0,-5.4,30.38,West,268,0.0,0.0,85,0.00,,,0.00,VWS V14.01,2013-12-31 14:50:00,
2013-12-31 08:55:00,-1.9,-5.3,30.38,West,268,0.0,0.0,85,0.00,,,0.00,VWS V14.01,2013-12-31 14:55:00,
2013-12-31 09:00:00,-1.8,-5.2,30.38,West,268,0.0,0.0,85,0.00,,,0.00,VWS V14.01,2013-12-31 15:00:00,
2013-12-31 09:05:00,-1.7,-4.9,30.38,West,268,0.0,0.0,86,0.00,,,0.00,VWS V14.01,2013-12-31 15:05:00,
2013-12-31 09:10:00,-1.6,-4.8,30.39,West,268,0.0,0.0,86,0.00,,,0.00,VWS V14.01,2013-12-31 15:10:00,
2013-12-31 09:20:00,-1.3,-4.5,30.39,NW,313,0.0,0.0,86,0.00,,,0.00,VWS V14.01,2013-12-31 15:20:00,
2013-12-31 09:35:00,-1.0,-4.4,30.39,NNW,340,0.0,2.1,85,0.00,,,0.00,VWS V14.01,2013-12-31 15:35:00,
2013-12-31 09:40:00,-1.0,-4.4,30.39,NNW,341,0.0,0.0,85,0.00,,,0.00,VWS V14.01,2013-12-31 15:40:00,
2013-12-31 09:50:00,-0.9,-4.3,30.40,North,351,2.0,4.2,85,0.00,,,0.00,VWS V14.01,2013-12-31 15:50:00,
2013-12-31 09:55:00,-0.8,-4.2,30.40,North,355,1.0,4.2,85,0.00,,,0.00,VWS V14.01,2013-12-31 15:55:00,
2013-12-31 10:00:00,-0.7,-4.1,30.41,NNW,343,0.0,4.2,85,0.00,,,0.00,VWS V14.01,2013-12-31 16:00:00,
2013-12-31 10:05:00,-0.5,-3.9,30.41,NNW,341,0.0,3.1,85,0.00,,,0.00,VWS V14.01,2013-12-31 16:05:00,
2013-12-31 10:15:00,-0.2,-3.9,30.41,NNW,342,2.0,3.1,84,0.00,,,0.00,VWS V14.01,2013-12-31 16:15:00,
2013-12-31 10:20:00,-0.2,-3.6,30.41,NNW,341,0.0,3.1,85,0.00,,,0.00,VWS V14.01,2013-12-31 16:20:00,
2013-12-31 10:25:00,-0.1,-3.4,30.42,NNW,341,2.0,3.1,85,0.00,,,0.00,VWS V14.01,2013-12-31 16:25:00,
2013-12-31 10:30:00,-0.1,-3.7,30.42,NNW,340,2.0,3.1,84,0.00,,,0.00,VWS V14.01,2013-12-31 16:30:00,
2013-12-31 10:35:00,-0.1,-3.7,30.42,NNW,340,0.0,3.1,84,0.00,,,0.00,VWS V14.01,2013-12-31 16:35:00,
2013-12-31 10:45:00,0.4,-3.3,30.42,NNW,341,2.0,3.1,84,0.00,,,0.00,VWS V14.01,2013-12-31 16:45:00,
2013-12-31 10:50:00,0.4,-3.3,30.42,NNW,341,1.0,3.1,84,0.00,,,0.00,VWS V14.01,2013-12-31 16:50:00,
2013-12-31 11:00:00,0.6,-3.1,30.42,NNW,346,0.0,3.1,84,0.00,,,0.00,VWS V14.01,2013-12-31 17:00:00,
2013-12-31 11:05:00,0.5,-3.4,30.42,North,355,3.0,4.2,83,0.00,,,0.00,VWS V14.01,2013-12-31 17:05:00,
2013-12-31 11:10:00,0.4,-3.5,30.42,North,5,2.0,4.2,83,0.00,,,0.00,VWS V14.01,2013-12-31 17:10:00,
2013-12-31 11:15:00,0.4,-3.5,30.42,North,5,2.0,4.2,83,0.00,,,0.00,VWS V14.01,2013-12-31 17:15:00,
2013-12-31 11:20:00,0.3,-3.6,30.42,North,5,2.0,4.2,83,0.00,,,0.00,VWS V14.01,2013-12-31 17:20:00,
2013-12-31 11:25:00,0.4,-3.5,30.42,North,5,0.0,4.2,83,0.00,,,0.00,VWS V14.01,2013-12-31 17:25:00,
2013-12-31 11:30:00,0.3,-3.6,30.42,NNE,14,4.0,5.2,83,0.00,,,0.00,VWS V14.01,2013-12-31 17:30:00,
2013-12-31 11:35:00,0.1,-4.1,30.41,NNE,23,3.0,5.2,82,0.00,,,0.00,VWS V14.01,2013-12-31 17:35:00,
2013-12-31 11:45:00,-0.1,-4.3,30.41,NNE,24,2.0,3.1,82,0.00,,,0.00,VWS V14.01,2013-12-31 17:45:00,
2013-12-31 11:50:00,-0.1,-4.2,30.41,NNE,19,2.0,3.1,82,0.00,,,0.00,VWS V14.01,2013-12-31 17:50:00,
2013-12-31 12:00:00,0.2,-4.2,30.41,North,355,1.0,4.2,81,0.00,,,0.00,VWS V14.01,2013-12-31 18:00:00,
2013-12-31 12:05:00,0.4,-4.0,30.41,North,5,0.0,4.2,81,0.00,,,0.00,VWS V14.01,2013-12-31 18:05:00,
2013-12-31 12:10:00,0.3,-4.1,30.40,North,5,0.0,4.2,81,0.00,,,0.00,VWS V14.01,2013-12-31 18:10:00,
2013-12-31 12:15:00,0.3,-4.1,30.40,North,9,2.0,4.2,81,0.00,,,0.00,VWS V14.01,2013-12-31 18:15:00,
2013-12-31 12:25:00,0.3,-4.4,30.40,NNE,12,3.0,6.3,80,0.00,,,0.00,VWS V14.01,2013-12-31 18:25:00,
2013-12-31 12:30:00,0.4,-4.3,30.40,North,355,4.0,6.3,80,0.00,,,0.00,VWS V14.01,2013-12-31 18:30:00,
2013-12-31 12:35:00,0.3,-4.4,30.39,North,350,5.0,8.4,80,0.00,,,0.00,VWS V14.01,2013-12-31 18:35:00,
2013-12-31 12:40:00,0.2,-4.5,30.40,NNE,22,5.0,8.4,80,0.00,,,0.00,VWS V14.01,2013-12-31 18:40:00,
2013-12-31 12:45:00,0.1,-4.8,30.40,North,5,6.0,8.4,79,0.00,,,0.00,VWS V14.01,2013-12-31 18:45:00,
2013-12-31 12:50:00,0.2,-4.5,30.40,NNW,341,5.0,8.4,80,0.00,,,0.00,VWS V14.01,2013-12-31 18:50:00,
2013-12-31 13:00:00,0.1,-4.7,30.39,North,355,6.0,10.5,80,0.00,,,0.00,VWS V14.01,2013-12-31 19:00:00,
2013-12-31 13:05:00,0.1,-4.7,30.39,North,351,4.0,8.4,80,0.00,,,0.00,VWS V14.01,2013-12-31 19:05:00,
2013-12-31 13:10:00,0.1,-4.7,30.39,North,5,4.0,8.4,80,0.00,,,0.00,VWS V14.01,2013-12-31 19:10:00,
2013-12-31 13:15:00,-0.1,-4.7,30.39,NE,36,7.0,9.4,80,0.00,,,0.00,VWS V14.01,2013-12-31 19:15:00,
2013-12-31 13:20:00,-0.2,-4.9,30.39,North,355,3.0,11.5,80,0.00,,,0.00,VWS V14.01,2013-12-31 19:20:00,
2013-12-31 13:25:00,-0.1,-4.8,30.39,North,355,4.0,6.3,80,0.00,,BKN120,0.00,VWS V14.01,2013-12-31 19:25:00,
2013-12-31 13:30:00,-0.1,-4.4,30.39,North,350,5.0,6.3,81,0.00,,BKN120,0.00,VWS V14.01,2013-12-31 19:30:00,
2013-12-31 13:35:00,0.1,-4.3,30.39,NNW,343,5.0,8.4,81,0.00,,BKN120,0.00,VWS V14.01,2013-12-31 19:35:00,
2013-12-31 13:40:00,0.2,-4.5,30.39,NNE,17,3.0,6.3,80,0.00,,BKN120,0.00,VWS V14.01,2013-12-31 19:40:00,
2013-12-31 13:45:00,0.5,-3.9,30.39,North,355,4.0,6.3,81,0.00,,,0.00,VWS V14.01,2013-12-31 19:45:00,
2013-12-31 13:50:00,0.5,-4.2,30.40,NNW,348,4.0,8.4,80,0.00,,,0.00,VWS V14.01,2013-12-31 19:50:00,
2013-12-31 13:55:00,0.7,-4.0,30.40,North,5,5.0,7.3,80,0.00,,,0.00,VWS V14.01,2013-12-31 19:55:00,
2013-12-31 14:00:00,0.6,-4.1,30.40,North,360,9.0,9.4,80,0.00,,,0.00,VWS V14.01,2013-12-31 20:00:00,
2013-12-31 14:05:00,0.4,-4.6,30.40,NNE,12,2.0,9.4,79,0.00,,BKN120,0.00,VWS V14.01,2013-12-31 20:05:00,
2013-12-31 14:15:00,0.1,-5.1,30.40,North,5,4.0,6.3,78,0.00,,BKN120,0.00,VWS V14.01,2013-12-31 20:15:00,
2013-12-31 14:20:00,-0.1,-5.3,30.40,NNW,345,5.0,9.4,78,0.00,,BKN120,0.00,VWS V14.01,2013-12-31 20:20:00,
2013-12-31 14:25:00,-0.3,-5.5,30.40,NNE,28,8.0,10.5,78,0.00,,BKN110,0.00,VWS V14.01,2013-12-31 20:25:00,
2013-12-31 14:30:00,-0.5,-6.0,30.40,NNE,24,4.0,10.5,77,0.00,,BKN110,0.00,VWS V14.01,2013-12-31 20:30:00,
2013-12-31 14:40:00,-0.6,-5.8,30.40,North,355,8.0,8.4,78,0.00,,BKN110,0.00,VWS V14.01,2013-12-31 20:40:00,
2013-12-31 14:45:00,-0.5,-5.7,30.40,NNW,346,3.0,9.4,78,0.00,,BKN110,0.00,VWS V14.01,2013-12-31 20:45:00,
2013-12-31 14:50:00,-0.2,-5.4,30.40,North,355,5.0,8.4,78,0.00,,BKN110,0.00,VWS V14.01,2013-12-31 20:50:00,
2013-12-31 14:55:00,-0.1,-5.2,30.40,North,355,4.0,7.3,78,0.00,,BKN110,0.00,VWS V14.01,2013-12-31 20:55:00,
2013-12-31 15:05:00,-0.5,-6.0,30.40,North,360,4.0,10.5,77,0.00,,SCT120,0.00,VWS V14.01,2013-12-31 21:05:00,
2013-12-31 15:10:00,-0.6,-6.1,30.40,NNE,27,5.0,9.4,77,0.00,,SCT120,0.00,VWS V14.01,2013-12-31 21:10:00,
2013-12-31 15:15:00,-0.9,-6.4,30.40,North,350,3.0,8.4,77,0.00,,SCT120,0.00,VWS V14.01,2013-12-31 21:15:00,
2013-12-31 15:25:00,-1.3,-6.8,30.41,North,351,4.0,6.3,77,0.00,,CLR,0.00,VWS V14.01,2013-12-31 21:25:00,
2013-12-31 15:35:00,-1.5,-6.9,30.41,NNW,346,6.0,8.4,77,0.00,,CLR,0.00,VWS V14.01,2013-12-31 21:35:00,
2013-12-31 15:45:00,-1.9,-7.1,30.41,NE,51,3.0,6.3,78,0.00,,CLR,0.00,VWS V14.01,2013-12-31 21:45:00,
2013-12-31 15:50:00,-2.0,-7.4,30.42,NNE,12,3.0,5.2,77,0.00,,CLR,0.00,VWS V14.01,2013-12-31 21:50:00,
2013-12-31 15:55:00,-2.1,-7.3,30.42,North,355,3.0,4.2,78,0.00,,CLR,0.00,VWS V14.01,2013-12-31 21:55:00,
2013-12-31 16:00:00,-2.3,-7.5,30.42,North,10,2.0,3.1,78,0.00,,CLR,0.00,VWS V14.01,2013-12-31 22:00:00,
2013-12-31 16:05:00,-2.2,-7.4,30.42,North,10,0.0,2.1,78,0.00,,CLR,0.00,VWS V14.01,2013-12-31 22:05:00,
2013-12-31 16:10:00,-2.2,-7.4,30.42,NNE,24,1.0,2.1,78,0.00,,CLR,0.00,VWS V14.01,2013-12-31 22:10:00,
2013-12-31 16:20:00,-2.8,-7.9,30.42,NNE,20,0.0,2.1,78,0.00,,CLR,0.00,VWS V14.01,2013-12-31 22:20:00,
2013-12-31 16:25:00,-3.2,-8.3,30.42,NNE,21,0.0,2.1,78,0.00,,CLR,0.00,VWS V14.01,2013-12-31 22:25:00,
2013-12-31 16:30:00,-3.6,-8.7,30.42,NNE,22,0.0,0.0,78,0.00,,CLR,0.00,VWS V14.01,2013-12-31 22:30:00,
2013-12-31 16:40:00,-4.2,-9.3,30.43,NNE,22,0.0,0.0,78,0.00,,CLR,0.00,VWS V14.01,2013-12-31 22:40:00,
2013-12-31 16:50:00,-4.4,-9.2,30.43,NNE,21,0.0,0.0,79,0.00,,CLR,0.00,VWS V14.01,2013-12-31 22:50:00,
2013-12-31 16:55:00,-4.5,-9.3,30.44,NNE,22,0.0,0.0,79,0.00,,CLR,0.00,VWS V14.01,2013-12-31 22:55:00,
2013-12-31 17:05:00,-5.0,-10.1,30.44,NNE,21,0.0,0.0,78,0.00,,CLR,0.00,VWS V14.01,2013-12-31 23:05:00,
2013-12-31 17:10:00,-5.5,-10.8,30.43,NNE,21,0.0,0.0,77,0.00,,CLR,0.00,VWS V14.01,2013-12-31 23:10:00,
2013-12-31 17:15:00,-5.8,-10.9,30.44,NNE,21,0.0,0.0,78,0.00,,CLR,0.00,VWS V14.01,2013-12-31 23:15:00,
2013-12-31 17:20:00,-6.0,-11.1,30.44,NNE,21,0.0,0.0,78,0.00,,CLR,0.00,VWS V14.01,2013-12-31 23:20:00,
2013-12-31 17:25:00,-6.2,-11.3,30.44,NNE,21,0.0,0.0,78,0.00,,CLR,0.00,VWS V14.01,2013-12-31 23:25:00,
2013-12-31 17:30:00,-6.3,-11.1,30.44,NNE,22,0.0,0.0,79,0.00,,CLR,0.00,VWS V14.01,2013-12-31 23:30:00,
2013-12-31 17:35:00,-6.4,-11.4,30.44,NNE,22,0.0,0.0,78,0.00,,CLR,0.00,VWS V14.01,2013-12-31 23:35:00,
2013-12-31 17:40:00,-6.8,-11.8,30.45,NNE,21,0.0,0.0,78,0.00,,CLR,0.00,VWS V14.01,2013-12-31 23:40:00,
2013-12-31 17:45:00,-6.8,-11.8,30.45,NNE,22,0.0,0.0,78,0.00,,CLR,0.00,VWS V14.01,2013-12-31 23:45:00,
2013-12-31 17:55:00,-7.6,-12.6,30.45,NNE,23,0.0,0.0,78,0.00,,CLR,0.00,VWS V14.01,2013-12-31 23:55:00,
2013-12-31 18:00:00,-8.0,-13.0,30.45,NNE,23,0.0,0.0,78,0.00,,CLR,0.00,VWS V14.01,2014-01-01 00:00:00,
2013-12-31 18:05:00,-8.5,-13.5,30.45,NNE,23,0.0,0.0,78,0.00,,CLR,0.00,VWS V14.01,2014-01-01 00:05:00,
2013-12-31 18:10:00,-8.7,-13.7,30.45,NNE,23,0.0,0.0,78,0.00,,CLR,0.00,VWS V14.01,2014-01-01 00:10:00,
2013-12-31 18:15:00,-9.2,-13.9,30.45,NNE,23,0.0,0.0,79,0.00,,CLR,0.00,VWS V14.01,2014-01-01 00:15:00,
2013-12-31 18:25:00,-10.9,-15.8,30.47,NNE,22,0.0,0.0,78,0.00,,CLR,0.00,VWS V14.01,2014-01-01 00:25:00,
2013-12-31 18:30:00,-11.3,-16.0,30.47,NNE,22,0.0,0.0,79,0.00,,CLR,0.00,VWS V14.01,2014-01-01 00:30:00,
2013-12-31 18:35:00,-11.3,-15.7,30.47,NNE,22,0.0,0.0,80,0.00,,CLR,0.00,VWS V14.01,2014-01-01 00:35:00,
2013-12-31 18:40:00,-11.1,-15.3,30.47,NNE,22,0.0,0.0,81,0.00,,CLR,0.00,VWS V14.01,2014-01-01 00:40:00,
2013-12-31 18:45:00,-10.8,-15.0,30.48,NNE,22,0.0,0.0,81,0.00,,CLR,0.00,VWS V14.01,2014-01-01 00:45:00,
2013-12-31 18:50:00,-10.9,-15.3,30.47,NNE,22,0.0,0.0,80,0.00,,CLR,0.00,VWS V14.01,2014-01-01 00:50:00,
2013-12-31 18:55:00,-11.0,-15.4,30.47,North,355,1.0,1.0,80,0.00,,CLR,0.00,VWS V14.01,2014-01-01 00:55:00,
2013-12-31 19:00:00,-10.4,-14.6,30.47,North,355,0.0,3.1,81,0.00,,CLR,0.00,VWS V14.01,2014-01-01 01:00:00,
2013-12-31 19:05:00,-10.5,-14.9,30.47,NNE,19,1.0,2.1,80,0.00,,CLR,0.00,VWS V14.01,2014-01-01 01:05:00,
2013-12-31 19:10:00,-11.3,-16.0,30.47,NNE,26,2.0,3.1,79,0.00,,CLR,0.00,VWS V14.01,2014-01-01 01:10:00,
2013-12-31 19:20:00,-12.1,-16.8,30.47,NNE,32,0.0,2.1,79,0.00,,CLR,0.00,VWS V14.01,2014-01-01 01:20:00,
2013-12-31 19:25:00,-12.1,-16.5,30.47,NE,34,0.0,0.0,80,0.00,,CLR,0.00,VWS V14.01,2014-01-01 01:25:00,
2013-12-31 19:30:00,-11.9,-16.1,30.47,NNE,32,0.0,2.1,81,0.00,,CLR,0.00,VWS V14.01,2014-01-01 01:30:00,
2013-12-31 19:40:00,-11.8,-16.0,30.47,NE,37,0.0,1.0,81,0.00,,CLR,0.00,VWS V14.01,2014-01-01 01:40:00,
2013-12-31 19:45:00,-11.9,-16.1,30.47,NE,37,0.0,0.0,81,0.00,,CLR,0.00,VWS V14.01,2014-01-01 01:45:00,
2013-12-31 19:50:00,-12.0,-16.2,30.47,NE,37,0.0,0.0,81,0.00,,CLR,0.00,VWS V14.01,2014-01-01 01:50:00,
2013-12-31 19:55:00,-12.1,-16.3,30.47,NE,37,0.0,0.0,81,0.00,,CLR,0.00,VWS V14.01,2014-01-01 01:55:00,
2013-12-31 20:00:00,-12.3,-16.7,30.47,NE,36,0.0,0.0,80,0.00,,CLR,0.00,VWS V14.01,2014-01-01 02:00:00,
2013-12-31 20:10:00,-11.5,-15.4,30.48,North,5,0.0,0.0,82,0.00,,CLR,0.00,VWS V14.01,2014-01-01 02:10:00,
2013-12-31 20:15:00,-11.3,-15.2,30.48,North,5,0.0,1.0,82,0.00,,CLR,0.00,VWS V14.01,2014-01-01 02:15:00,
2013-12-31 20:20:00,-11.2,-15.4,30.48,North,5,0.0,0.0,81,0.00,,CLR,0.00,VWS V14.01,2014-01-01 02:20:00,
2013-12-31 20:25:00,-11.1,-15.3,30.48,NNE,16,0.0,1.0,81,0.00,,CLR,0.00,VWS V14.01,2014-01-01 02:25:00,
2013-12-31 20:35:00,-11.4,-15.8,30.48,NNE,19,0.0,0.0,80,0.00,,CLR,0.00,VWS V14.01,2014-01-01 02:35:00,
2013-12-31 20:40:00,-11.3,-15.5,30.48,NNE,17,0.0,0.0,81,0.00,,CLR,0.00,VWS V14.01,2014-01-01 02:40:00,
2013-12-31 20:50:00,-11.5,-15.9,30.48,NNE,18,0.0,0.0,80,0.00,,CLR,0.00,VWS V14.01,2014-01-01 02:50:00,
2013-12-31 20:55:00,-11.7,-16.1,30.48,NNE,18,0.0,0.0,80,0.00,,CLR,0.00,VWS V14.01,2014-01-01 02:55:00,
2013-12-31 21:00:00,-12.0,-16.4,30.47,NNE,18,0.0,0.0,80,0.00,,SCT100,0.00,VWS V14.01,2014-01-01 03:00:00,
2013-12-31 21:10:00,-12.4,-16.8,30.47,NE,55,1.0,2.1,80,0.00,,SCT100,0.00,VWS V14.01,2014-01-01 03:10:00,
2013-12-31 21:15:00,-12.1,-16.3,30.47,NE,55,0.0,2.1,81,0.00,,SCT100,0.00,VWS V14.01,2014-01-01 03:15:00,
2013-12-31 21:25:00,-10.9,-14.9,30.48,NE,44,3.0,3.1,82,0.00,,BKN090,0.00,VWS V14.01,2014-01-01 03:25:00,
2013-12-31 21:35:00,-9.5,-13.2,30.48,NE,52,7.0,7.3,83,0.00,,BKN090,0.00,VWS V14.01,2014-01-01 03:35:00,
2013-12-31 21:40:00,-8.1,-11.6,30.48,NE,53,5.0,8.4,84,0.00,,BKN090,0.00,VWS V14.01,2014-01-01 03:40:00,
2013-12-31 21:45:00,-7.6,-11.6,30.48,NE,46,4.0,6.3,82,0.00,,OVC090,0.00,VWS V14.01,2014-01-01 03:45:00,
2013-12-31 21:55:00,-7.9,-12.4,30.48,NE,35,4.0,6.3,80,0.00,,OVC090,0.00,VWS V14.01,2014-01-01 03:55:00,
2013-12-31 22:00:00,-8.0,-12.5,30.48,NE,34,3.0,7.3,80,0.00,,OVC090,0.00,VWS V14.01,2014-01-01 04:00:00,
2013-12-31 22:10:00,-8.0,-12.5,30.48,NNE,28,5.0,5.2,80,0.00,,OVC070,0.00,VWS V14.01,2014-01-01 04:10:00,
2013-12-31 22:15:00,-7.9,-12.4,30.48,NE,49,6.0,6.3,80,0.00,,OVC070,0.00,VWS V14.01,2014-01-01 04:15:00,
2013-12-31 22:25:00,-7.2,-11.5,30.48,NE,42,5.0,10.5,81,0.00,,OVC070,0.00,VWS V14.01,2014-01-01 04:25:00,
2013-12-31 22:30:00,-7.0,-11.5,30.48,NE,46,7.0,9.4,80,0.00,,OVC070,0.00,VWS V14.01,2014-01-01 04:30:00,
2013-12-31 22:40:00,-6.6,-11.1,30.48,NE,51,6.0,10.5,80,0.00,,OVC070,0.00,VWS V14.01,2014-01-01 04:40:00,
2013-12-31 22:45:00,-6.4,-10.9,30.48,NE,46,7.0,9.4,80,0.00,,OVC070,0.00,VWS V14.01,2014-01-01 04:45:00,
2013-12-31 22:50:00,-6.2,-11.0,30.48,ENE,57,5.0,9.4,79,0.00,,OVC070,0.00,VWS V14.01,2014-01-01 04:50:00,
2013-12-31 22:55:00,-6.2,-11.0,30.48,NE,53,7.0,8.4,79,0.00,,OVC070,0.00,VWS V14.01,2014-01-01 04:55:00,
2013-12-31 23:00:00,-6.1,-10.9,30.48,NE,48,7.0,9.4,79,0.00,,OVC070,0.00,VWS V14.01,2014-01-01 05:00:00,
2013-12-31 23:05:00,-6.0,-10.8,30.49,NE,49,4.0,7.3,79,0.00,,OVC060,0.00,VWS V14.01,2014-01-01 05:05:00,
2013-12-31 23:10:00,-6.0,-10.8,30.49,NE,43,6.0,9.4,79,0.00,,OVC060,0.00,VWS V14.01,2014-01-01 05:10:00,
2013-12-31 23:15:00,-6.0,-11.1,30.49,NE,48,6.0,9.4,78,0.00,,OVC060,0.00,VWS V14.01,2014-01-01 05:15:00,
2013-12-31 23:20:00,-5.9,-11.0,30.49,NE,40,6.0,10.5,78,0.00,,OVC060,0.00,VWS V14.01,2014-01-01 05:20:00,
2013-12-31 23:25:00,-5.9,-11.0,30.49,NE,42,10.0,10.5,78,0.00,,OVC060,0.00,VWS V14.01,2014-01-01 05:25:00,
2013-12-31 23:30:00,-5.9,-11.0,30.49,NE,51,7.0,10.5,78,0.00,,OVC060,0.00,VWS V14.01,2014-01-01 05:30:00,
2013-12-31 23:40:00,-5.9,-11.0,30.49,NE,46,6.0,11.5,78,0.00,,OVC060,0.00,VWS V14.01,2014-01-01 05:40:00,
2013-12-31 23:45:00,-5.9,-11.0,30.49,NE,51,9.0,12.6,78,0.00,,OVC060,0.00,VWS V14.01,2014-01-01 05:45:00,
2013-12-31 23:50:00,-5.9,-11.0,30.49,NE,51,10.0,12.6,78,0.00,,OVC060,0.00,VWS V14.01,2014-01-01 05:50:00,